Rockford, WA (99030)

10:26 PM PST on January 23, 2017 (GMT -0800)
Excelsior Creek Farm | | Change Station

Elev 2382 ft 47.53 °N, 117.27 °W | Updated 11 seconds ago

Overcast
Overcast
32.2 °F
Feels Like 32 °F
N
0.0
Wind Variable Wind from WNW
Gusts 0.0 mph

Today
High -- | Low -- °F
--% Chance of Precip.
Yesterday
High -- | Low -- °F
Precip. -- in
Pressure 29.92 in
Visibility 10.0 miles
Clouds Overcast 1200 ft
Windchill 32 °F
Dew Point 32 °F
Humidity 99%
Rainfall 0.07 in
Snow Depth Not available.
7:24 AM 4:36 PM
Waning Crescent, 13% visible
METAR KSFF 240553Z AUTO 27003KT 10SM OVC012 01/00 A2987 RMK AO2 SLP130 I6000 T00110000 10022 21011 51013
Pressure 29.92 in
Visibility 10.0 miles
Clouds Overcast 1200 ft
Windchill 32 °F
Dew Point 32 °F
Humidity 99%
Rainfall 0.07 in
Snow Depth Not available.
7:24 AM 4:36 PM
Waning Crescent, 13% visible
METAR KSFF 240553Z AUTO 27003KT 10SM OVC012 01/00 A2987 RMK AO2 SLP130 I6000 T00110000 10022 21011 51013

Get Your Daily Forecast Email!

Thanks for signing up!

Be on the lookout for a verification email in your inbox.

You'll start receiving the daily forecast at 8 AM.

×

10-Day Weather Forecast

Almanac

Astronomy

Jan. 23, 2017 Rise Set
Actual Time
Civil Twilight
Nautical Twilight
Astronomical Twilight
Moon
Length of Visible Light
Length of Day
Tomorrow will be .
, % of the Moon is Illuminated

Today's Extremes

State Highs State Lows

Community

WunderPhotos

Upload Photos

1,962,540 photos uploaded!

WunderBlog® & News

Nearby

Air Quality

  Air Quality AQ Index Pollutant
Not available.

Snow Depth

Station Depth Elevation

Earthquake Activity

City Distance Mag. Time & Date
Minimum magnitude displayed is 2.5.

Coastal Water Temperatures

Place Temperature

Stations

Nearby Weather Stations

Station Location Temp. Windchill Dew Point Humidity Wind Precip. Elev Updated Type
                   

Watches & Warnings

There are currently no watches in effect.